createdAt,value
2022-10-11T00:26:10.641Z,8
2022-10-11T00:36:12.740Z,7.9
2022-10-11T00:46:14.989Z,7.9
2022-10-11T00:56:17.211Z,7.9
2022-10-11T01:06:19.007Z,7.8
2022-10-11T01:16:20.883Z,7.7
2022-10-11T01:46:27.013Z,7.5
2022-10-11T02:26:36.177Z,7.3
2022-10-11T02:36:38.555Z,7.2
2022-10-11T03:06:45.776Z,7
2022-10-11T03:09:40.305Z,7
2022-10-11T03:17:12.257Z,6.9
2022-10-11T03:57:06.615Z,6.6
2022-10-11T04:07:08.841Z,6.5
2022-10-11T04:17:10.899Z,6.6
2022-10-11T04:27:13.528Z,6.6
2022-10-11T04:47:17.580Z,6.4
2022-10-11T04:57:19.598Z,6.4
2022-10-11T05:17:24.375Z,6.2
2022-10-11T05:27:26.858Z,6
2022-10-11T05:37:29.188Z,5.9
2022-10-11T05:57:32.597Z,5.6
2022-10-11T06:07:35.206Z,5.7
2022-10-11T06:17:37.464Z,5.6
2022-10-11T06:27:39.378Z,5.6
2022-10-11T06:37:41.708Z,5.7
2022-10-11T06:57:46.235Z,6.1
2022-10-11T07:37:54.380Z,7.3
2022-10-11T07:57:58.439Z,8.1
2022-10-11T08:08:00.560Z,8.5
2022-10-11T08:18:02.779Z,8.9
2022-10-11T08:28:04.947Z,9.4
2022-10-11T08:38:06.771Z,9.9
2022-10-11T08:48:09.026Z,10.8
2022-10-11T08:58:11.661Z,11.6
2022-10-11T09:08:14.107Z,12.4
2022-10-11T09:18:16.787Z,12.9
2022-10-11T09:28:19.502Z,13.1
2022-10-11T09:38:21.679Z,13.4
2022-10-11T09:58:26.391Z,14.1
2022-10-11T10:08:28.405Z,14.1
2022-10-11T10:18:30.969Z,14.4
2022-10-11T10:28:33.069Z,14
2022-10-11T10:38:35.245Z,14.6
2022-10-11T10:58:39.236Z,13.8
2022-10-11T11:08:41.144Z,14
2022-10-11T11:28:45.177Z,14.9
2022-10-11T11:38:46.934Z,15.1
2022-10-11T11:48:49.319Z,15.2
2022-10-11T11:58:51.516Z,15.4
2022-10-11T12:28:57.915Z,15.9
2022-10-11T12:59:04.333Z,16.9
2022-10-11T13:09:06.520Z,16.2
2022-10-11T13:19:08.838Z,16.2
2022-10-11T13:29:10.713Z,15.8
2022-10-11T13:39:13.137Z,15.6
2022-10-11T13:49:15.510Z,15.7
2022-10-11T13:59:17.261Z,16
2022-10-11T14:09:18.930Z,16.4
2022-10-11T14:19:21.532Z,17.3
2022-10-11T14:39:26.402Z,17.8
2022-10-11T15:09:32.497Z,17.5
2022-10-11T15:19:34.869Z,17.1
2022-10-11T16:29:49.184Z,14.7
2022-10-11T16:49:54.060Z,14.1
2022-10-11T16:59:55.814Z,13.6
2022-10-11T17:09:58.141Z,13
2022-10-11T17:20:00.657Z,12.4
2022-10-11T17:30:03.222Z,12
2022-10-11T17:40:05.177Z,11.5
2022-10-11T17:50:07.000Z,11.3
2022-10-11T18:00:09.503Z,11.1
2022-10-11T18:10:11.682Z,10.8
2022-10-11T18:20:14.186Z,10.4
2022-10-11T18:30:16.369Z,10.1
2022-10-11T18:40:18.496Z,9.9
2022-10-11T18:50:21.106Z,9.7
2022-10-11T19:00:39.980Z,9.4
2022-10-11T19:10:25.994Z,9.4
2022-10-11T19:20:28.337Z,9.2
2022-10-11T19:30:30.704Z,8.8
2022-10-11T19:40:33.188Z,8.5
2022-10-11T19:50:34.856Z,8.4
2022-10-11T20:00:37.305Z,8.3
2022-10-11T20:10:39.443Z,8.2
2022-10-11T20:20:41.374Z,8
2022-10-11T20:30:43.168Z,7.9
2022-10-11T20:40:44.876Z,7.6
2022-10-11T20:50:46.882Z,7.6
2022-10-11T21:00:49.216Z,7.5
2022-10-11T21:10:51.881Z,7.4
2022-10-11T21:20:54.080Z,7.2
2022-10-11T21:40:58.427Z,7
2022-10-11T22:01:03.203Z,6.7
2022-10-11T22:11:05.129Z,6.6
2022-10-11T22:21:07.168Z,6.6
2022-10-11T22:31:09.710Z,6.4
2022-10-11T22:41:11.440Z,6.4
2022-10-11T22:51:13.150Z,6.4
2022-10-11T23:01:14.955Z,6.3
2022-10-11T23:11:16.746Z,6.2
2022-10-11T23:21:19.007Z,6.1
2022-10-11T23:31:21.207Z,6
2022-10-11T23:41:22.902Z,5.9
2022-10-11T23:51:24.687Z,5.8
